sensor_id;sensor_type;location;lat;lon;timestamp;P1;durP1;ratioP1;P2;durP2;ratioP2
30729;SDS011;17476;48.458;7.928;2023-05-29T00:00:20;0.20;;;0.20;;
30729;SDS011;17476;48.458;7.928;2023-05-29T00:02:46;0.20;;;0.20;;
30729;SDS011;17476;48.458;7.928;2023-05-29T00:05:16;0.27;;;0.27;;
30729;SDS011;17476;48.458;7.928;2023-05-29T00:07:43;0.30;;;0.30;;
30729;SDS011;17476;48.458;7.928;2023-05-29T00:10:09;0.30;;;0.30;;
30729;SDS011;17476;48.458;7.928;2023-05-29T00:12:37;0.20;;;0.20;;
30729;SDS011;17476;48.458;7.928;2023-05-29T00:15:04;0.20;;;0.20;;
30729;SDS011;17476;48.458;7.928;2023-05-29T00:17:30;0.20;;;0.20;;
30729;SDS011;17476;48.458;7.928;2023-05-29T00:20:00;0.20;;;0.20;;
30729;SDS011;17476;48.458;7.928;2023-05-29T00:22:30;0.20;;;0.20;;
30729;SDS011;17476;48.458;7.928;2023-05-29T00:24:56;0.20;;;0.20;;
30729;SDS011;17476;48.458;7.928;2023-05-29T00:27:22;0.20;;;0.20;;
30729;SDS011;17476;48.458;7.928;2023-05-29T00:29:48;0.20;;;0.20;;
30729;SDS011;17476;48.458;7.928;2023-05-29T00:32:13;0.20;;;0.20;;
30729;SDS011;17476;48.458;7.928;2023-05-29T00:34:39;0.30;;;0.30;;
30729;SDS011;17476;48.458;7.928;2023-05-29T00:37:05;0.20;;;0.20;;
30729;SDS011;17476;48.458;7.928;2023-05-29T00:39:31;0.20;;;0.20;;
30729;SDS011;17476;48.458;7.928;2023-05-29T00:41:57;0.20;;;0.20;;
30729;SDS011;17476;48.458;7.928;2023-05-29T00:44:23;0.20;;;0.20;;
30729;SDS011;17476;48.458;7.928;2023-05-29T00:46:49;0.30;;;0.30;;
30729;SDS011;17476;48.458;7.928;2023-05-29T00:49:18;0.20;;;0.20;;
30729;SDS011;17476;48.458;7.928;2023-05-29T00:51:46;0.20;;;0.20;;
30729;SDS011;17476;48.458;7.928;2023-05-29T00:54:17;0.27;;;0.27;;
30729;SDS011;17476;48.458;7.928;2023-05-29T00:56:52;0.20;;;0.20;;
30729;SDS011;17476;48.458;7.928;2023-05-29T00:59:19;0.20;;;0.20;;
30729;SDS011;17476;48.458;7.928;2023-05-29T01:01:47;0.30;;;0.30;;
30729;SDS011;17476;48.458;7.928;2023-05-29T01:04:15;0.30;;;0.30;;
30729;SDS011;17476;48.458;7.928;2023-05-29T01:06:42;0.20;;;0.20;;
30729;SDS011;17476;48.458;7.928;2023-05-29T01:09:09;0.20;;;0.20;;
30729;SDS011;17476;48.458;7.928;2023-05-29T01:17:40;0.30;;;0.30;;
30729;SDS011;17476;48.458;7.928;2023-05-29T01:20:27;0.20;;;0.20;;
30729;SDS011;17476;48.458;7.928;2023-05-29T01:29:27;0.30;;;0.30;;
30729;SDS011;17476;48.458;7.928;2023-05-29T01:31:57;0.20;;;0.20;;
30729;SDS011;17476;48.458;7.928;2023-05-29T01:34:24;0.30;;;0.30;;
30729;SDS011;17476;48.458;7.928;2023-05-29T01:36:50;0.20;;;0.20;;
30729;SDS011;17476;48.458;7.928;2023-05-29T01:39:16;0.20;;;0.20;;
30729;SDS011;17476;48.458;7.928;2023-05-29T01:41:44;0.20;;;0.20;;
30729;SDS011;17476;48.458;7.928;2023-05-29T01:44:11;0.30;;;0.30;;
30729;SDS011;17476;48.458;7.928;2023-05-29T01:46:39;0.27;;;0.27;;
30729;SDS011;17476;48.458;7.928;2023-05-29T01:49:10;0.30;;;0.30;;
30729;SDS011;17476;48.458;7.928;2023-05-29T01:51:37;0.20;;;0.20;;
30729;SDS011;17476;48.458;7.928;2023-05-29T01:54:05;0.30;;;0.30;;
30729;SDS011;17476;48.458;7.928;2023-05-29T01:56:32;0.20;;;0.20;;
30729;SDS011;17476;48.458;7.928;2023-05-29T01:58:59;0.20;;;0.20;;
30729;SDS011;17476;48.458;7.928;2023-05-29T02:01:27;0.20;;;0.20;;
30729;SDS011;17476;48.458;7.928;2023-05-29T02:03:53;0.20;;;0.20;;
30729;SDS011;17476;48.458;7.928;2023-05-29T02:06:19;0.30;;;0.30;;
30729;SDS011;17476;48.458;7.928;2023-05-29T02:08:45;0.20;;;0.20;;
30729;SDS011;17476;48.458;7.928;2023-05-29T02:11:12;0.20;;;0.20;;
30729;SDS011;17476;48.458;7.928;2023-05-29T02:13:38;0.20;;;0.20;;
30729;SDS011;17476;48.458;7.928;2023-05-29T02:16:04;0.20;;;0.20;;
30729;SDS011;17476;48.458;7.928;2023-05-29T02:18:30;0.20;;;0.20;;
30729;SDS011;17476;48.458;7.928;2023-05-29T02:20:56;0.20;;;0.20;;
30729;SDS011;17476;48.458;7.928;2023-05-29T02:23:22;0.20;;;0.20;;
30729;SDS011;17476;48.458;7.928;2023-05-29T02:25:48;0.20;;;0.20;;
30729;SDS011;17476;48.458;7.928;2023-05-29T02:28:14;0.20;;;0.20;;
30729;SDS011;17476;48.458;7.928;2023-05-29T02:30:40;0.20;;;0.20;;
30729;SDS011;17476;48.458;7.928;2023-05-29T02:33:05;0.20;;;0.20;;
30729;SDS011;17476;48.458;7.928;2023-05-29T02:35:31;0.20;;;0.20;;
30729;SDS011;17476;48.458;7.928;2023-05-29T02:37:57;0.30;;;0.30;;
30729;SDS011;17476;48.458;7.928;2023-05-29T02:40:23;0.20;;;0.20;;
30729;SDS011;17476;48.458;7.928;2023-05-29T02:42:49;0.30;;;0.30;;
30729;SDS011;17476;48.458;7.928;2023-05-29T02:45:15;0.20;;;0.20;;
30729;SDS011;17476;48.458;7.928;2023-05-29T02:47:42;0.30;;;0.30;;
30729;SDS011;17476;48.458;7.928;2023-05-29T02:50:08;0.20;;;0.20;;
30729;SDS011;17476;48.458;7.928;2023-05-29T02:52:34;0.30;;;0.30;;
30729;SDS011;17476;48.458;7.928;2023-05-29T02:55:02;0.30;;;0.30;;
30729;SDS011;17476;48.458;7.928;2023-05-29T02:57:29;0.20;;;0.20;;
30729;SDS011;17476;48.458;7.928;2023-05-29T02:59:54;0.20;;;0.20;;
30729;SDS011;17476;48.458;7.928;2023-05-29T03:02:20;0.20;;;0.20;;
30729;SDS011;17476;48.458;7.928;2023-05-29T03:04:46;0.20;;;0.20;;
30729;SDS011;17476;48.458;7.928;2023-05-29T03:07:15;0.20;;;0.20;;
30729;SDS011;17476;48.458;7.928;2023-05-29T03:09:41;0.20;;;0.20;;
30729;SDS011;17476;48.458;7.928;2023-05-29T03:12:07;0.30;;;0.30;;
30729;SDS011;17476;48.458;7.928;2023-05-29T03:14:33;0.30;;;0.30;;
30729;SDS011;17476;48.458;7.928;2023-05-29T03:17:03;0.30;;;0.30;;
30729;SDS011;17476;48.458;7.928;2023-05-29T03:19:31;0.20;;;0.20;;
30729;SDS011;17476;48.458;7.928;2023-05-29T03:21:57;0.30;;;0.30;;
30729;SDS011;17476;48.458;7.928;2023-05-29T03:24:22;0.30;;;0.30;;
30729;SDS011;17476;48.458;7.928;2023-05-29T03:26:48;0.20;;;0.20;;
30729;SDS011;17476;48.458;7.928;2023-05-29T03:29:15;0.20;;;0.20;;
30729;SDS011;17476;48.458;7.928;2023-05-29T03:31:42;0.20;;;0.20;;
30729;SDS011;17476;48.458;7.928;2023-05-29T03:34:08;0.30;;;0.30;;
30729;SDS011;17476;48.458;7.928;2023-05-29T03:36:34;0.20;;;0.20;;
30729;SDS011;17476;48.458;7.928;2023-05-29T03:39:01;0.20;;;0.20;;
30729;SDS011;17476;48.458;7.928;2023-05-29T03:41:28;0.30;;;0.30;;
30729;SDS011;17476;48.458;7.928;2023-05-29T03:43:54;0.30;;;0.30;;
30729;SDS011;17476;48.458;7.928;2023-05-29T03:46:20;0.20;;;0.20;;
30729;SDS011;17476;48.458;7.928;2023-05-29T03:48:45;0.30;;;0.30;;
30729;SDS011;17476;48.458;7.928;2023-05-29T03:51:11;0.30;;;0.30;;
30729;SDS011;17476;48.458;7.928;2023-05-29T03:53:37;0.40;;;0.40;;
30729;SDS011;17476;48.458;7.928;2023-05-29T03:56:03;0.30;;;0.30;;
30729;SDS011;17476;48.458;7.928;2023-05-29T03:58:29;0.20;;;0.20;;
30729;SDS011;17476;48.458;7.928;2023-05-29T04:00:55;0.30;;;0.30;;
30729;SDS011;17476;48.458;7.928;2023-05-29T04:03:21;0.20;;;0.20;;
30729;SDS011;17476;48.458;7.928;2023-05-29T04:05:47;0.20;;;0.20;;
30729;SDS011;17476;48.458;7.928;2023-05-29T04:08:12;0.20;;;0.20;;
30729;SDS011;17476;48.458;7.928;2023-05-29T04:10:38;0.20;;;0.20;;
30729;SDS011;17476;48.458;7.928;2023-05-29T04:13:05;0.30;;;0.30;;
30729;SDS011;17476;48.458;7.928;2023-05-29T04:15:31;0.20;;;0.20;;
30729;SDS011;17476;48.458;7.928;2023-05-29T04:17:58;0.30;;;0.30;;
30729;SDS011;17476;48.458;7.928;2023-05-29T04:20:25;0.20;;;0.20;;
30729;SDS011;17476;48.458;7.928;2023-05-29T04:22:51;0.30;;;0.30;;
30729;SDS011;17476;48.458;7.928;2023-05-29T04:25:17;0.20;;;0.20;;
30729;SDS011;17476;48.458;7.928;2023-05-29T04:27:43;0.20;;;0.20;;
30729;SDS011;17476;48.458;7.928;2023-05-29T04:30:16;0.30;;;0.30;;
30729;SDS011;17476;48.458;7.928;2023-05-29T04:32:41;0.40;;;0.40;;
30729;SDS011;17476;48.458;7.928;2023-05-29T04:35:08;0.30;;;0.30;;
30729;SDS011;17476;48.458;7.928;2023-05-29T04:37:34;0.20;;;0.20;;
30729;SDS011;17476;48.458;7.928;2023-05-29T04:40:05;0.20;;;0.20;;
30729;SDS011;17476;48.458;7.928;2023-05-29T04:42:38;0.30;;;0.30;;
30729;SDS011;17476;48.458;7.928;2023-05-29T04:45:07;0.30;;;0.30;;
30729;SDS011;17476;48.458;7.928;2023-05-29T04:47:36;0.30;;;0.30;;
30729;SDS011;17476;48.458;7.928;2023-05-29T04:50:15;0.20;;;0.20;;
30729;SDS011;17476;48.458;7.928;2023-05-29T04:52:42;0.30;;;0.30;;
30729;SDS011;17476;48.458;7.928;2023-05-29T04:55:09;0.30;;;0.30;;
30729;SDS011;17476;48.458;7.928;2023-05-29T04:57:35;0.20;;;0.20;;
30729;SDS011;17476;48.458;7.928;2023-05-29T05:00:02;0.20;;;0.20;;
30729;SDS011;17476;48.458;7.928;2023-05-29T05:02:32;0.20;;;0.20;;
30729;SDS011;17476;48.458;7.928;2023-05-29T05:04:58;0.20;;;0.20;;
30729;SDS011;17476;48.458;7.928;2023-05-29T05:07:24;0.20;;;0.20;;
30729;SDS011;17476;48.458;7.928;2023-05-29T05:09:50;0.20;;;0.20;;
30729;SDS011;17476;48.458;7.928;2023-05-29T05:12:16;0.20;;;0.20;;
30729;SDS011;17476;48.458;7.928;2023-05-29T05:14:41;0.30;;;0.30;;
30729;SDS011;17476;48.458;7.928;2023-05-29T05:17:07;0.30;;;0.30;;
30729;SDS011;17476;48.458;7.928;2023-05-29T05:19:33;0.30;;;0.30;;
30729;SDS011;17476;48.458;7.928;2023-05-29T05:21:59;0.20;;;0.20;;
30729;SDS011;17476;48.458;7.928;2023-05-29T05:24:25;0.30;;;0.30;;
30729;SDS011;17476;48.458;7.928;2023-05-29T05:26:51;0.20;;;0.20;;
30729;SDS011;17476;48.458;7.928;2023-05-29T05:29:17;0.20;;;0.20;;
30729;SDS011;17476;48.458;7.928;2023-05-29T05:31:43;0.20;;;0.20;;
30729;SDS011;17476;48.458;7.928;2023-05-29T05:34:09;0.30;;;0.30;;
30729;SDS011;17476;48.458;7.928;2023-05-29T05:36:35;0.20;;;0.20;;
30729;SDS011;17476;48.458;7.928;2023-05-29T05:39:02;0.20;;;0.20;;
30729;SDS011;17476;48.458;7.928;2023-05-29T05:41:28;0.20;;;0.20;;
30729;SDS011;17476;48.458;7.928;2023-05-29T05:43:53;0.30;;;0.30;;
30729;SDS011;17476;48.458;7.928;2023-05-29T05:46:19;0.20;;;0.20;;
30729;SDS011;17476;48.458;7.928;2023-05-29T05:48:45;0.20;;;0.20;;
30729;SDS011;17476;48.458;7.928;2023-05-29T05:51:11;0.20;;;0.20;;
30729;SDS011;17476;48.458;7.928;2023-05-29T05:53:37;0.20;;;0.20;;
30729;SDS011;17476;48.458;7.928;2023-05-29T05:56:04;0.30;;;0.30;;
30729;SDS011;17476;48.458;7.928;2023-05-29T05:58:30;0.20;;;0.20;;
30729;SDS011;17476;48.458;7.928;2023-05-29T06:00:55;0.20;;;0.20;;
30729;SDS011;17476;48.458;7.928;2023-05-29T06:03:22;0.17;;;0.17;;
30729;SDS011;17476;48.458;7.928;2023-05-29T06:05:48;0.10;;;0.10;;
30729;SDS011;17476;48.458;7.928;2023-05-29T06:08:15;0.10;;;0.10;;
30729;SDS011;17476;48.458;7.928;2023-05-29T06:10:41;0.20;;;0.20;;
30729;SDS011;17476;48.458;7.928;2023-05-29T06:13:07;0.20;;;0.20;;
30729;SDS011;17476;48.458;7.928;2023-05-29T06:15:33;0.20;;;0.20;;
30729;SDS011;17476;48.458;7.928;2023-05-29T06:18:00;0.20;;;0.20;;
30729;SDS011;17476;48.458;7.928;2023-05-29T06:20:26;0.20;;;0.20;;
30729;SDS011;17476;48.458;7.928;2023-05-29T06:22:52;0.20;;;0.20;;
30729;SDS011;17476;48.458;7.928;2023-05-29T06:25:18;0.10;;;0.10;;
30729;SDS011;17476;48.458;7.928;2023-05-29T06:27:45;0.20;;;0.20;;
30729;SDS011;17476;48.458;7.928;2023-05-29T06:30:11;0.20;;;0.20;;
30729;SDS011;17476;48.458;7.928;2023-05-29T06:32:38;0.20;;;0.20;;
30729;SDS011;17476;48.458;7.928;2023-05-29T06:35:04;0.10;;;0.10;;
30729;SDS011;17476;48.458;7.928;2023-05-29T06:37:31;0.10;;;0.10;;
30729;SDS011;17476;48.458;7.928;2023-05-29T06:39:58;0.10;;;0.10;;
30729;SDS011;17476;48.458;7.928;2023-05-29T06:42:31;0.10;;;0.10;;
30729;SDS011;17476;48.458;7.928;2023-05-29T06:44:57;0.20;;;0.20;;
30729;SDS011;17476;48.458;7.928;2023-05-29T06:47:23;0.00;;;0.00;;
30729;SDS011;17476;48.458;7.928;2023-05-29T06:49:48;0.10;;;0.10;;
30729;SDS011;17476;48.458;7.928;2023-05-29T06:52:14;0.10;;;0.10;;
30729;SDS011;17476;48.458;7.928;2023-05-29T06:54:40;0.10;;;0.10;;
30729;SDS011;17476;48.458;7.928;2023-05-29T06:57:06;0.10;;;0.10;;
30729;SDS011;17476;48.458;7.928;2023-05-29T06:59:32;0.10;;;0.10;;
30729;SDS011;17476;48.458;7.928;2023-05-29T07:01:58;0.13;;;0.13;;
30729;SDS011;17476;48.458;7.928;2023-05-29T07:04:24;0.00;;;0.00;;
30729;SDS011;17476;48.458;7.928;2023-05-29T07:06:50;0.10;;;0.10;;
30729;SDS011;17476;48.458;7.928;2023-05-29T07:09:16;0.10;;;0.10;;
30729;SDS011;17476;48.458;7.928;2023-05-29T07:11:42;0.10;;;0.10;;
30729;SDS011;17476;48.458;7.928;2023-05-29T07:14:08;0.10;;;0.10;;
30729;SDS011;17476;48.458;7.928;2023-05-29T07:16:33;0.10;;;0.10;;
30729;SDS011;17476;48.458;7.928;2023-05-29T07:18:59;0.07;;;0.07;;
30729;SDS011;17476;48.458;7.928;2023-05-29T07:21:25;0.10;;;0.10;;
30729;SDS011;17476;48.458;7.928;2023-05-29T07:23:51;0.10;;;0.10;;
30729;SDS011;17476;48.458;7.928;2023-05-29T07:26:17;0.10;;;0.10;;
30729;SDS011;17476;48.458;7.928;2023-05-29T07:28:42;0.10;;;0.10;;
30729;SDS011;17476;48.458;7.928;2023-05-29T07:31:08;0.10;;;0.10;;
30729;SDS011;17476;48.458;7.928;2023-05-29T07:33:34;0.00;;;0.00;;
30729;SDS011;17476;48.458;7.928;2023-05-29T07:36:00;0.00;;;0.00;;
30729;SDS011;17476;48.458;7.928;2023-05-29T07:38:26;0.10;;;0.10;;
30729;SDS011;17476;48.458;7.928;2023-05-29T07:40:51;0.10;;;0.10;;
30729;SDS011;17476;48.458;7.928;2023-05-29T07:43:17;0.00;;;0.00;;
30729;SDS011;17476;48.458;7.928;2023-05-29T07:45:43;0.10;;;0.10;;
30729;SDS011;17476;48.458;7.928;2023-05-29T07:48:09;0.00;;;0.00;;
30729;SDS011;17476;48.458;7.928;2023-05-29T07:50:35;0.10;;;0.10;;
30729;SDS011;17476;48.458;7.928;2023-05-29T07:53:02;0.10;;;0.10;;
30729;SDS011;17476;48.458;7.928;2023-05-29T07:55:27;0.10;;;0.10;;
30729;SDS011;17476;48.458;7.928;2023-05-29T07:57:53;0.10;;;0.10;;
30729;SDS011;17476;48.458;7.928;2023-05-29T08:00:19;0.00;;;0.00;;
30729;SDS011;17476;48.458;7.928;2023-05-29T08:02:45;0.00;;;0.00;;
30729;SDS011;17476;48.458;7.928;2023-05-29T08:05:11;0.10;;;0.10;;
30729;SDS011;17476;48.458;7.928;2023-05-29T08:07:37;0.03;;;0.03;;
30729;SDS011;17476;48.458;7.928;2023-05-29T08:10:03;0.10;;;0.10;;
30729;SDS011;17476;48.458;7.928;2023-05-29T08:12:32;0.10;;;0.10;;
30729;SDS011;17476;48.458;7.928;2023-05-29T08:15:00;0.00;;;0.00;;
30729;SDS011;17476;48.458;7.928;2023-05-29T08:17:27;0.00;;;0.00;;
30729;SDS011;17476;48.458;7.928;2023-05-29T08:19:53;0.10;;;0.10;;
30729;SDS011;17476;48.458;7.928;2023-05-29T08:22:19;0.00;;;0.00;;
30729;SDS011;17476;48.458;7.928;2023-05-29T08:24:44;0.00;;;0.00;;
30729;SDS011;17476;48.458;7.928;2023-05-29T08:27:10;0.00;;;0.00;;
30729;SDS011;17476;48.458;7.928;2023-05-29T08:29:36;0.00;;;0.00;;
30729;SDS011;17476;48.458;7.928;2023-05-29T08:32:03;0.03;;;0.03;;
30729;SDS011;17476;48.458;7.928;2023-05-29T08:34:29;0.00;;;0.00;;
30729;SDS011;17476;48.458;7.928;2023-05-29T08:36:55;0.00;;;0.00;;
30729;SDS011;17476;48.458;7.928;2023-05-29T08:39:21;0.00;;;0.00;;
30729;SDS011;17476;48.458;7.928;2023-05-29T08:44:26;0.00;;;0.00;;
30729;SDS011;17476;48.458;7.928;2023-05-29T08:46:57;0.10;;;0.10;;
30729;SDS011;17476;48.458;7.928;2023-05-29T08:49:40;0.00;;;0.00;;
30729;SDS011;17476;48.458;7.928;2023-05-29T08:52:15;0.00;;;0.00;;
30729;SDS011;17476;48.458;7.928;2023-05-29T08:54:43;0.00;;;0.00;;
30729;SDS011;17476;48.458;7.928;2023-05-29T08:57:10;0.00;;;0.00;;
30729;SDS011;17476;48.458;7.928;2023-05-29T08:59:37;0.00;;;0.00;;
30729;SDS011;17476;48.458;7.928;2023-05-29T09:02:07;0.00;;;0.00;;
30729;SDS011;17476;48.458;7.928;2023-05-29T09:04:34;0.00;;;0.00;;
30729;SDS011;17476;48.458;7.928;2023-05-29T09:07:00;0.00;;;0.00;;
30729;SDS011;17476;48.458;7.928;2023-05-29T09:09:27;0.00;;;0.00;;
30729;SDS011;17476;48.458;7.928;2023-05-29T09:11:54;0.00;;;0.00;;
30729;SDS011;17476;48.458;7.928;2023-05-29T09:15:06;0.03;;;0.03;;
30729;SDS011;17476;48.458;7.928;2023-05-29T09:17:12;0.00;;;0.00;;
30729;SDS011;17476;48.458;7.928;2023-05-29T09:19:40;0.00;;;0.00;;
30729;SDS011;17476;48.458;7.928;2023-05-29T09:22:13;0.00;;;0.00;;
30729;SDS011;17476;48.458;7.928;2023-05-29T09:24:40;0.00;;;0.00;;
30729;SDS011;17476;48.458;7.928;2023-05-29T09:27:08;0.00;;;0.00;;
30729;SDS011;17476;48.458;7.928;2023-05-29T09:29:38;0.00;;;0.00;;
30729;SDS011;17476;48.458;7.928;2023-05-29T09:32:13;0.00;;;0.00;;
30729;SDS011;17476;48.458;7.928;2023-05-29T09:34:42;0.00;;;0.00;;
30729;SDS011;17476;48.458;7.928;2023-05-29T09:37:08;0.03;;;0.03;;
30729;SDS011;17476;48.458;7.928;2023-05-29T09:39:44;0.00;;;0.00;;
30729;SDS011;17476;48.458;7.928;2023-05-29T09:42:14;0.00;;;0.00;;
30729;SDS011;17476;48.458;7.928;2023-05-29T09:44:41;0.00;;;0.00;;
30729;SDS011;17476;48.458;7.928;2023-05-29T09:47:09;0.00;;;0.00;;
30729;SDS011;17476;48.458;7.928;2023-05-29T09:49:42;0.00;;;0.00;;
30729;SDS011;17476;48.458;7.928;2023-05-29T09:52:10;0.00;;;0.00;;
30729;SDS011;17476;48.458;7.928;2023-05-29T09:54:41;0.00;;;0.00;;
30729;SDS011;17476;48.458;7.928;2023-05-29T09:57:12;0.00;;;0.00;;
30729;SDS011;17476;48.458;7.928;2023-05-29T09:59:45;0.00;;;0.00;;
30729;SDS011;17476;48.458;7.928;2023-05-29T10:02:16;0.00;;;0.00;;
30729;SDS011;17476;48.458;7.928;2023-05-29T10:04:42;0.00;;;0.00;;
30729;SDS011;17476;48.458;7.928;2023-05-29T10:07:28;0.00;;;0.00;;
30729;SDS011;17476;48.458;7.928;2023-05-29T10:10:02;0.00;;;0.00;;
30729;SDS011;17476;48.458;7.928;2023-05-29T10:12:37;0.00;;;0.00;;
30729;SDS011;17476;48.458;7.928;2023-05-29T10:15:11;0.00;;;0.00;;
30729;SDS011;17476;48.458;7.928;2023-05-29T10:17:39;0.00;;;0.00;;
30729;SDS011;17476;48.458;7.928;2023-05-29T10:20:15;0.00;;;0.00;;
30729;SDS011;17476;48.458;7.928;2023-05-29T10:22:50;0.00;;;0.00;;
30729;SDS011;17476;48.458;7.928;2023-05-29T10:25:19;0.00;;;0.00;;
30729;SDS011;17476;48.458;7.928;2023-05-29T10:27:49;0.00;;;0.00;;
30729;SDS011;17476;48.458;7.928;2023-05-29T10:30:25;0.00;;;0.00;;
30729;SDS011;17476;48.458;7.928;2023-05-29T10:36:24;0.00;;;0.00;;
30729;SDS011;17476;48.458;7.928;2023-05-29T10:38:58;0.00;;;0.00;;
30729;SDS011;17476;48.458;7.928;2023-05-29T10:43:56;0.00;;;0.00;;
30729;SDS011;17476;48.458;7.928;2023-05-29T10:47:11;0.00;;;0.00;;
30729;SDS011;17476;48.458;7.928;2023-05-29T10:49:18;0.00;;;0.00;;
30729;SDS011;17476;48.458;7.928;2023-05-29T10:51:45;0.00;;;0.00;;
30729;SDS011;17476;48.458;7.928;2023-05-29T10:54:13;0.00;;;0.00;;
30729;SDS011;17476;48.458;7.928;2023-05-29T10:56:41;0.00;;;0.00;;
30729;SDS011;17476;48.458;7.928;2023-05-29T10:59:16;0.00;;;0.00;;
30729;SDS011;17476;48.458;7.928;2023-05-29T11:01:43;0.00;;;0.00;;
30729;SDS011;17476;48.458;7.928;2023-05-29T11:06:46;0.00;;;0.00;;
30729;SDS011;17476;48.458;7.928;2023-05-29T11:12:13;0.00;;;0.00;;
30729;SDS011;17476;48.458;7.928;2023-05-29T11:15:02;0.00;;;0.00;;
30729;SDS011;17476;48.458;7.928;2023-05-29T11:20:04;0.00;;;0.00;;
30729;SDS011;17476;48.458;7.928;2023-05-29T11:25:14;0.00;;;0.00;;
30729;SDS011;17476;48.458;7.928;2023-05-29T11:27:41;0.00;;;0.00;;
30729;SDS011;17476;48.458;7.928;2023-05-29T11:30:09;0.00;;;0.00;;
30729;SDS011;17476;48.458;7.928;2023-05-29T11:32:36;0.00;;;0.00;;
30729;SDS011;17476;48.458;7.928;2023-05-29T11:35:06;0.00;;;0.00;;
30729;SDS011;17476;48.458;7.928;2023-05-29T11:37:34;0.00;;;0.00;;
30729;SDS011;17476;48.458;7.928;2023-05-29T11:40:03;0.00;;;0.00;;
30729;SDS011;17476;48.458;7.928;2023-05-29T11:42:30;0.00;;;0.00;;
30729;SDS011;17476;48.458;7.928;2023-05-29T11:45:09;0.00;;;0.00;;
30729;SDS011;17476;48.458;7.928;2023-05-29T11:47:54;0.00;;;0.00;;
30729;SDS011;17476;48.458;7.928;2023-05-29T11:50:23;0.00;;;0.00;;
30729;SDS011;17476;48.458;7.928;2023-05-29T11:52:52;0.00;;;0.00;;
30729;SDS011;17476;48.458;7.928;2023-05-29T11:55:21;0.00;;;0.00;;
30729;SDS011;17476;48.458;7.928;2023-05-29T11:57:48;0.00;;;0.00;;
30729;SDS011;17476;48.458;7.928;2023-05-29T12:00:20;0.00;;;0.00;;
30729;SDS011;17476;48.458;7.928;2023-05-29T12:02:47;0.00;;;0.00;;
30729;SDS011;17476;48.458;7.928;2023-05-29T12:05:17;0.00;;;0.00;;
30729;SDS011;17476;48.458;7.928;2023-05-29T12:08:01;0.00;;;0.00;;
30729;SDS011;17476;48.458;7.928;2023-05-29T12:10:29;0.00;;;0.00;;
30729;SDS011;17476;48.458;7.928;2023-05-29T12:12:56;0.00;;;0.00;;
30729;SDS011;17476;48.458;7.928;2023-05-29T12:15:24;0.00;;;0.00;;
30729;SDS011;17476;48.458;7.928;2023-05-29T12:17:51;0.00;;;0.00;;
30729;SDS011;17476;48.458;7.928;2023-05-29T12:20:18;0.00;;;0.00;;
30729;SDS011;17476;48.458;7.928;2023-05-29T12:22:47;0.00;;;0.00;;
30729;SDS011;17476;48.458;7.928;2023-05-29T12:25:14;0.00;;;0.00;;
30729;SDS011;17476;48.458;7.928;2023-05-29T12:27:43;0.00;;;0.00;;
30729;SDS011;17476;48.458;7.928;2023-05-29T12:32:47;0.00;;;0.00;;
30729;SDS011;17476;48.458;7.928;2023-05-29T12:37:58;0.00;;;0.00;;
30729;SDS011;17476;48.458;7.928;2023-05-29T12:40:28;0.00;;;0.00;;
30729;SDS011;17476;48.458;7.928;2023-05-29T12:42:59;0.00;;;0.00;;
30729;SDS011;17476;48.458;7.928;2023-05-29T12:45:28;0.00;;;0.00;;
30729;SDS011;17476;48.458;7.928;2023-05-29T12:47:56;0.00;;;0.00;;
30729;SDS011;17476;48.458;7.928;2023-05-29T12:50:27;0.00;;;0.00;;
30729;SDS011;17476;48.458;7.928;2023-05-29T12:55:29;0.00;;;0.00;;
30729;SDS011;17476;48.458;7.928;2023-05-29T12:58:07;0.00;;;0.00;;
30729;SDS011;17476;48.458;7.928;2023-05-29T13:00:38;0.00;;;0.00;;
30729;SDS011;17476;48.458;7.928;2023-05-29T13:03:06;0.00;;;0.00;;
30729;SDS011;17476;48.458;7.928;2023-05-29T13:05:33;0.00;;;0.00;;
30729;SDS011;17476;48.458;7.928;2023-05-29T13:08:00;0.00;;;0.00;;
30729;SDS011;17476;48.458;7.928;2023-05-29T13:10:26;0.00;;;0.00;;
30729;SDS011;17476;48.458;7.928;2023-05-29T13:12:53;0.00;;;0.00;;
30729;SDS011;17476;48.458;7.928;2023-05-29T13:15:21;0.00;;;0.00;;
30729;SDS011;17476;48.458;7.928;2023-05-29T13:17:48;0.00;;;0.00;;
30729;SDS011;17476;48.458;7.928;2023-05-29T13:20:14;0.00;;;0.00;;
30729;SDS011;17476;48.458;7.928;2023-05-29T13:22:42;0.00;;;0.00;;
30729;SDS011;17476;48.458;7.928;2023-05-29T13:25:11;0.00;;;0.00;;
30729;SDS011;17476;48.458;7.928;2023-05-29T13:27:43;0.00;;;0.00;;
30729;SDS011;17476;48.458;7.928;2023-05-29T13:30:11;0.00;;;0.00;;
30729;SDS011;17476;48.458;7.928;2023-05-29T13:32:38;0.00;;;0.00;;
30729;SDS011;17476;48.458;7.928;2023-05-29T13:35:06;0.00;;;0.00;;
30729;SDS011;17476;48.458;7.928;2023-05-29T13:37:32;0.00;;;0.00;;
30729;SDS011;17476;48.458;7.928;2023-05-29T13:39:59;0.00;;;0.00;;
30729;SDS011;17476;48.458;7.928;2023-05-29T13:42:24;0.00;;;0.00;;
30729;SDS011;17476;48.458;7.928;2023-05-29T13:44:50;0.00;;;0.00;;
30729;SDS011;17476;48.458;7.928;2023-05-29T13:47:17;0.00;;;0.00;;
30729;SDS011;17476;48.458;7.928;2023-05-29T13:49:43;0.00;;;0.00;;
30729;SDS011;17476;48.458;7.928;2023-05-29T13:52:09;0.00;;;0.00;;
30729;SDS011;17476;48.458;7.928;2023-05-29T13:54:35;0.00;;;0.00;;
30729;SDS011;17476;48.458;7.928;2023-05-29T13:57:01;0.00;;;0.00;;
30729;SDS011;17476;48.458;7.928;2023-05-29T13:59:29;0.00;;;0.00;;
30729;SDS011;17476;48.458;7.928;2023-05-29T14:01:59;0.00;;;0.00;;
30729;SDS011;17476;48.458;7.928;2023-05-29T14:04:25;0.00;;;0.00;;
30729;SDS011;17476;48.458;7.928;2023-05-29T14:06:52;0.00;;;0.00;;
30729;SDS011;17476;48.458;7.928;2023-05-29T14:09:18;0.00;;;0.00;;
30729;SDS011;17476;48.458;7.928;2023-05-29T14:11:52;0.00;;;0.00;;
30729;SDS011;17476;48.458;7.928;2023-05-29T14:14:24;0.00;;;0.00;;
30729;SDS011;17476;48.458;7.928;2023-05-29T14:16:51;0.00;;;0.00;;
30729;SDS011;17476;48.458;7.928;2023-05-29T14:19:19;0.00;;;0.00;;
30729;SDS011;17476;48.458;7.928;2023-05-29T14:21:45;0.00;;;0.00;;
30729;SDS011;17476;48.458;7.928;2023-05-29T14:24:11;0.00;;;0.00;;
30729;SDS011;17476;48.458;7.928;2023-05-29T14:26:39;0.00;;;0.00;;
30729;SDS011;17476;48.458;7.928;2023-05-29T14:29:06;0.00;;;0.00;;
30729;SDS011;17476;48.458;7.928;2023-05-29T14:31:32;0.00;;;0.00;;
30729;SDS011;17476;48.458;7.928;2023-05-29T14:33:58;0.00;;;0.00;;
30729;SDS011;17476;48.458;7.928;2023-05-29T14:36:23;0.00;;;0.00;;
30729;SDS011;17476;48.458;7.928;2023-05-29T14:38:49;0.00;;;0.00;;
30729;SDS011;17476;48.458;7.928;2023-05-29T14:41:15;0.00;;;0.00;;
30729;SDS011;17476;48.458;7.928;2023-05-29T14:43:41;0.00;;;0.00;;
30729;SDS011;17476;48.458;7.928;2023-05-29T14:46:08;0.00;;;0.00;;
30729;SDS011;17476;48.458;7.928;2023-05-29T14:48:34;0.00;;;0.00;;
30729;SDS011;17476;48.458;7.928;2023-05-29T14:51:00;0.00;;;0.00;;
30729;SDS011;17476;48.458;7.928;2023-05-29T14:53:26;0.00;;;0.00;;
30729;SDS011;17476;48.458;7.928;2023-05-29T14:55:52;0.00;;;0.00;;
30729;SDS011;17476;48.458;7.928;2023-05-29T14:58:18;0.00;;;0.00;;
30729;SDS011;17476;48.458;7.928;2023-05-29T15:00:44;0.00;;;0.00;;
30729;SDS011;17476;48.458;7.928;2023-05-29T15:03:10;0.00;;;0.00;;
30729;SDS011;17476;48.458;7.928;2023-05-29T15:05:36;0.00;;;0.00;;
30729;SDS011;17476;48.458;7.928;2023-05-29T15:08:02;0.00;;;0.00;;
30729;SDS011;17476;48.458;7.928;2023-05-29T15:10:27;0.00;;;0.00;;
30729;SDS011;17476;48.458;7.928;2023-05-29T15:12:53;0.00;;;0.00;;
30729;SDS011;17476;48.458;7.928;2023-05-29T15:15:25;0.00;;;0.00;;
30729;SDS011;17476;48.458;7.928;2023-05-29T15:17:53;0.00;;;0.00;;
30729;SDS011;17476;48.458;7.928;2023-05-29T15:20:22;0.00;;;0.00;;
30729;SDS011;17476;48.458;7.928;2023-05-29T15:22:50;0.00;;;0.00;;
30729;SDS011;17476;48.458;7.928;2023-05-29T15:25:17;0.00;;;0.00;;
30729;SDS011;17476;48.458;7.928;2023-05-29T15:27:45;0.00;;;0.00;;
30729;SDS011;17476;48.458;7.928;2023-05-29T15:30:12;0.00;;;0.00;;